createdAt,value
2022-08-04T00:03:12.202Z,17.50475
2022-08-04T00:08:13.151Z,17.45527
2022-08-04T00:13:14.063Z,17.73472
2022-08-04T00:18:14.959Z,17.78332
2022-08-04T00:23:15.857Z,18.05314
2022-08-04T00:28:16.873Z,18.27528
2022-08-04T00:38:18.260Z,17.91272
2022-08-04T00:43:19.374Z,17.96711
2022-08-04T00:48:20.332Z,18.06459
2022-08-04T00:53:21.410Z,18.46165
2022-08-04T00:58:22.297Z,18.38769
2022-08-04T01:03:23.251Z,18.2554
2022-08-04T01:08:24.142Z,17.73473
2022-08-04T01:13:25.103Z,18.13889
2022-08-04T01:18:26.113Z,18.01829
2022-08-04T01:23:27.048Z,18.19167
2022-08-04T01:33:28.432Z,18.27426
2022-08-04T01:38:29.342Z,18.26275
2022-08-04T01:43:30.204Z,17.75532
2022-08-04T01:48:31.112Z,17.68158
2022-08-04T01:53:32.747Z,17.82539
2022-08-04T01:58:33.648Z,17.6923
2022-08-04T02:04:20.548Z,17.78486
2022-08-04T02:09:23.964Z,17.80823
2022-08-04T02:14:24.850Z,18.56622
2022-08-04T02:19:25.767Z,18.90876
2022-08-04T02:24:26.740Z,19.01489
2022-08-04T02:29:31.816Z,19.25445
2022-08-04T02:34:33.146Z,19.41899
2022-08-04T02:39:48.027Z,19.40004
2022-08-04T02:44:50.234Z,19.57995
2022-08-04T02:49:51.177Z,19.9572
2022-08-04T02:54:52.107Z,19.82001
2022-08-04T02:59:53.072Z,19.78307
2022-08-04T03:04:54.007Z,19.736
2022-08-04T03:09:55.142Z,20.04737
2022-08-04T03:14:56.075Z,19.86189
2022-08-04T03:19:56.995Z,19.41751
2022-08-04T03:24:57.905Z,19.36841
2022-08-04T03:29:58.835Z,19.29538
2022-08-04T03:40:08.997Z,19.46439
2022-08-04T03:45:23.078Z,19.18164
2022-08-04T03:50:25.241Z,19.6239
2022-08-04T03:55:26.151Z,18.91757
2022-08-04T04:00:27.155Z,19.18269
2022-08-04T04:05:28.164Z,18.90024
2022-08-04T04:10:47.866Z,18.83704
2022-08-04T04:15:50.208Z,18.35485
2022-08-04T04:20:51.396Z,18.09337
2022-08-04T04:25:52.364Z,18.32043
2022-08-04T04:35:53.798Z,18.49888
2022-08-04T04:40:55.158Z,18.42628
2022-08-04T04:45:56.193Z,18.46821
2022-08-04T04:50:57.144Z,18.32929
2022-08-04T04:55:58.098Z,18.4569
2022-08-04T05:00:59.028Z,18.18123
2022-08-04T05:06:00.004Z,17.83327
2022-08-04T05:11:00.983Z,17.88414
2022-08-04T05:16:02.002Z,18.07255
2022-08-04T05:21:02.887Z,17.80448
2022-08-04T05:26:03.909Z,18.34184
2022-08-04T05:31:09.867Z,18.06105
2022-08-04T05:36:19.035Z,18.20427
2022-08-04T05:41:32.413Z,17.93005
2022-08-04T05:46:46.096Z,17.93685
2022-08-04T05:51:55.667Z,18.04061
2022-08-04T05:56:56.571Z,17.73806
2022-08-04T06:01:57.927Z,18.47357
2022-08-04T06:06:59.087Z,18.39491
2022-08-04T06:12:03.826Z,18.66613
2022-08-04T06:17:05.060Z,18.17225
2022-08-04T06:22:05.981Z,18.26156
2022-08-04T06:27:06.866Z,18.17895
2022-08-04T06:32:28.760Z,18.06052
2022-08-04T06:37:43.462Z,18.50578
2022-08-04T06:42:45.133Z,18.4656
2022-08-04T06:47:46.079Z,18.73181
2022-08-04T06:52:47.089Z,18.98951
2022-08-04T06:57:47.992Z,19.07179
2022-08-04T07:02:48.907Z,19.22557
2022-08-04T07:07:57.240Z,19.24638
2022-08-04T07:12:58.935Z,19.18357
2022-08-04T07:18:00.215Z,19.37554
2022-08-04T07:23:01.625Z,19.32927
2022-08-04T07:28:02.576Z,19.70237
2022-08-04T07:33:03.494Z,19.71927
2022-08-04T07:38:04.454Z,20.33226
2022-08-04T07:43:10.714Z,20.24937
2022-08-04T07:48:14.814Z,20.56604
2022-08-04T07:53:54.494Z,21.11308
2022-08-04T07:58:56.609Z,21.08345
2022-08-04T08:03:57.813Z,21.11995
2022-08-04T08:08:58.828Z,21.6827
2022-08-04T08:13:59.802Z,21.7323
2022-08-04T08:19:00.731Z,22.1142
2022-08-04T08:24:01.772Z,22.34434
2022-08-04T08:29:02.708Z,22.51649
2022-08-04T08:34:03.619Z,22.64244
2022-08-04T08:39:04.743Z,22.76362
2022-08-04T08:44:07.740Z,23.23091
2022-08-04T08:50:02.320Z,23.41507
2022-08-04T08:55:04.418Z,23.85165
2022-08-04T09:00:05.393Z,24.04774
2022-08-04T09:05:06.374Z,23.97041
2022-08-04T09:15:07.915Z,23.89086
2022-08-04T09:20:08.823Z,24.08392
2022-08-04T09:25:09.808Z,24.04485
2022-08-04T09:30:10.776Z,24.67414
2022-08-04T09:35:15.165Z,24.99816
2022-08-04T09:40:29.388Z,25.18665
2022-08-04T09:45:44.018Z,25.36567
2022-08-04T09:50:50.058Z,25.0975
2022-08-04T09:55:54.409Z,24.83655
2022-08-04T10:00:56.683Z,25.73532
2022-08-04T10:05:57.664Z,26.19944
2022-08-04T10:10:58.570Z,26.6797
2022-08-04T10:15:59.533Z,26.90401
2022-08-04T10:26:05.525Z,28.41816
2022-08-04T10:31:09.459Z,28.44906
2022-08-04T10:36:10.354Z,29.0698
2022-08-04T10:41:11.598Z,29.70878
2022-08-04T10:46:12.764Z,29.53134
2022-08-04T10:51:13.665Z,29.77305
2022-08-04T10:56:14.580Z,30.70797
2022-08-04T11:02:02.109Z,29.82996
2022-08-04T11:07:04.485Z,31.24218
2022-08-04T11:12:05.446Z,31.31826
2022-08-04T11:17:06.445Z,31.72137
2022-08-04T11:22:07.651Z,32.00117
2022-08-04T11:27:09.499Z,32.44415
2022-08-04T11:32:10.452Z,32.67124
2022-08-04T11:37:14.156Z,32.12235
2022-08-04T11:42:16.110Z,31.97018
2022-08-04T11:47:17.107Z,32.83664
2022-08-04T11:52:18.125Z,32.60254
2022-08-04T11:57:21.102Z,32.68498
2022-08-04T12:02:22.269Z,33.2969
2022-08-04T12:12:23.843Z,34.16691
2022-08-04T12:17:24.803Z,34.83909
2022-08-04T12:22:31.473Z,33.75907
2022-08-04T12:27:33.151Z,35.10131
2022-08-04T12:32:34.158Z,35.06673
2022-08-04T12:37:35.080Z,35.24457
2022-08-04T12:42:36.072Z,36.27762
2022-08-04T12:47:37.084Z,36.36922
2022-08-04T12:53:01.064Z,36.83501
2022-08-04T12:58:02.947Z,37.03024
2022-08-04T13:03:03.948Z,37.57331
2022-08-04T13:08:04.881Z,38.14399
2022-08-04T13:13:05.840Z,38.90768
2022-08-04T13:18:06.798Z,38.63477
2022-08-04T13:23:21.687Z,38.74023
2022-08-04T13:28:22.992Z,38.99081
2022-08-04T13:33:23.928Z,39.40851
2022-08-04T13:38:24.999Z,39.52675
2022-08-04T13:43:48.446Z,39.75436
2022-08-04T13:49:42.504Z,40.16897
2022-08-04T13:54:55.749Z,40.51122
2022-08-04T13:59:56.651Z,41.48551
2022-08-04T14:04:57.555Z,41.47934
2022-08-04T14:10:04.046Z,42.39218
2022-08-04T14:15:05.300Z,42.92664
2022-08-04T14:20:06.242Z,43.47397
2022-08-04T14:25:07.168Z,43.54003
2022-08-04T14:30:08.116Z,43.37303
2022-08-04T14:35:09.048Z,43.62791
2022-08-04T14:40:29.753Z,43.99295
2022-08-04T14:45:32.087Z,44.67043
2022-08-04T14:50:33.007Z,44.55292
2022-08-04T14:55:34.124Z,45.28606
2022-08-04T15:00:35.027Z,45.42769
2022-08-04T15:05:55.041Z,45.74907
2022-08-04T15:11:06.860Z,45.81465
2022-08-04T15:16:08.739Z,46.0242
2022-08-04T15:21:09.797Z,46.53924
2022-08-04T15:26:10.692Z,47.0637
2022-08-04T15:32:05.473Z,47.2001
2022-08-04T15:37:09.868Z,47.56109
2022-08-04T15:42:16.151Z,47.60298
2022-08-04T15:47:20.031Z,47.43498
2022-08-04T15:52:21.391Z,47.92585
2022-08-04T15:57:23.254Z,48.06135
2022-08-04T16:02:24.553Z,48.21726
2022-08-04T16:07:25.709Z,48.33356
2022-08-04T16:12:52.846Z,48.72639
2022-08-04T16:17:55.253Z,49.11244
2022-08-04T16:22:56.503Z,49.15747
2022-08-04T16:27:57.438Z,49.30774
2022-08-04T16:32:58.378Z,48.94302
2022-08-04T16:37:59.386Z,48.9799
2022-08-04T16:43:00.514Z,49.17828
2022-08-04T16:48:01.595Z,49.54281
2022-08-04T16:53:02.600Z,49.1536
2022-08-04T16:58:03.593Z,49.40204
2022-08-04T17:03:04.510Z,49.36196
2022-08-04T17:08:28.650Z,49.79501
2022-08-04T17:14:03.840Z,50.03853
2022-08-04T17:19:05.913Z,49.80869
2022-08-04T17:24:15.111Z,49.8645
2022-08-04T17:29:20.034Z,49.7473
2022-08-04T17:34:21.414Z,50.40382
2022-08-04T17:39:22.464Z,50.18022
2022-08-04T17:44:23.633Z,49.88504
2022-08-04T17:49:26.717Z,49.73238
2022-08-04T17:54:36.601Z,49.87967
2022-08-04T17:59:56.997Z,49.378
2022-08-04T18:05:06.092Z,49.5307
2022-08-04T18:10:30.654Z,49.93682
2022-08-04T18:15:44.414Z,49.7844
2022-08-04T18:20:47.849Z,50.42324
2022-08-04T18:25:52.302Z,49.90747
2022-08-04T18:30:55.358Z,50.38995
2022-08-04T18:36:37.270Z,50.02115
2022-08-04T18:42:01.934Z,49.85025
2022-08-04T18:47:19.179Z,49.62501
2022-08-04T18:52:23.890Z,49.11874
2022-08-04T18:57:58.429Z,48.99791
2022-08-04T19:03:01.291Z,48.87659
2022-08-04T19:08:32.518Z,48.92911
2022-08-04T19:13:36.211Z,48.70035
2022-08-04T19:18:37.351Z,48.50718
2022-08-04T19:24:27.301Z,48.25669
2022-08-04T19:29:37.918Z,47.80261
2022-08-04T19:34:41.919Z,47.98688
2022-08-04T19:39:46.938Z,47.69777
2022-08-04T19:44:48.857Z,47.21789
2022-08-04T19:50:04.236Z,46.95051
2022-08-04T19:55:11.334Z,47.07773
2022-08-04T20:00:12.357Z,46.60587
2022-08-04T20:05:13.322Z,46.75962
2022-08-04T20:10:14.250Z,46.99588
2022-08-04T20:15:15.237Z,47.05668
2022-08-04T20:20:16.177Z,46.77954
2022-08-04T20:25:35.625Z,47.01389
2022-08-04T20:30:38.096Z,47.28383
2022-08-04T20:36:00.651Z,47.88544
2022-08-04T20:41:06.905Z,48.04476
2022-08-04T20:46:18.682Z,48.34307
2022-08-04T20:51:31.974Z,47.76311
2022-08-04T20:56:34.528Z,47.87019
2022-08-04T21:01:35.519Z,47.88971
2022-08-04T21:06:36.492Z,47.7779
2022-08-04T21:11:37.422Z,47.53572
2022-08-04T21:16:54.936Z,47.88201
2022-08-04T21:21:57.258Z,47.78502
2022-08-04T21:26:59.704Z,47.57233
2022-08-04T21:32:02.623Z,47.5079
2022-08-04T21:37:03.877Z,47.49145
2022-08-04T21:42:38.046Z,47.49568
2022-08-04T21:47:46.543Z,47.31782
2022-08-04T21:52:50.341Z,46.70864
2022-08-04T21:57:51.403Z,46.16952
2022-08-04T22:02:53.304Z,45.69003
2022-08-04T22:07:54.632Z,45.17807
2022-08-04T22:12:55.732Z,45.43332
2022-08-04T22:17:59.591Z,45.64545
2022-08-04T22:23:15.401Z,45.46036
2022-08-04T22:28:18.714Z,45.76909
2022-08-04T22:33:19.872Z,46.07582
2022-08-04T22:38:41.926Z,46.11182
2022-08-04T22:43:54.829Z,45.43695
2022-08-04T22:48:56.386Z,45.24538
2022-08-04T22:53:57.329Z,45.2187
2022-08-04T22:59:01.375Z,45.02879
2022-08-04T23:04:02.969Z,45.00987
2022-08-04T23:09:04.839Z,45.0968
2022-08-04T23:14:05.851Z,45.24405
2022-08-04T23:19:10.044Z,45.76353
2022-08-04T23:24:16.220Z,45.82832
2022-08-04T23:29:17.136Z,46.35418
2022-08-04T23:34:18.703Z,46.64502
2022-08-04T23:39:19.885Z,47.57493
2022-08-04T23:44:25.152Z,47.96627
2022-08-04T23:49:43.562Z,47.81295
2022-08-04T23:54:46.160Z,47.78384
2022-08-04T23:59:52.597Z,47.96691
